createdAt,value
2018-06-03T00:01:32.418Z,14.73
2018-06-03T00:04:03.162Z,16.80
2018-06-03T00:06:32.923Z,15.57
2018-06-03T00:09:05.413Z,15.80
2018-06-03T00:11:35.841Z,16.77
2018-06-03T00:14:05.256Z,17.53
2018-06-03T00:16:36.618Z,17.73
2018-06-03T00:19:06.030Z,14.90
2018-06-03T00:21:42.262Z,14.60
2018-06-03T00:24:12.726Z,16.60
2018-06-03T00:26:44.334Z,16.10
2018-06-03T00:29:14.199Z,17.03
2018-06-03T00:31:45.400Z,20.30
2018-06-03T00:34:14.821Z,18.87
2018-06-03T00:36:45.944Z,19.97
2018-06-03T00:39:15.334Z,20.60
2018-06-03T00:41:44.714Z,19.90
2018-06-03T00:44:14.635Z,17.87
2018-06-03T00:46:46.057Z,20.63
2018-06-03T00:49:15.450Z,20.40
2018-06-03T00:51:46.229Z,20.30
2018-06-03T00:54:16.022Z,22.47
2018-06-03T00:56:51.233Z,22.20
2018-06-03T00:59:22.145Z,22.43
2018-06-03T01:01:51.512Z,21.67
2018-06-03T01:04:20.949Z,24.63
2018-06-03T01:06:55.372Z,24.37
2018-06-03T01:09:26.961Z,22.67
2018-06-03T01:11:57.966Z,21.97
2018-06-03T01:14:28.363Z,24.67
2018-06-03T01:16:59.948Z,21.27
2018-06-03T01:19:29.460Z,21.10
2018-06-03T01:22:00.123Z,17.30
2018-06-03T01:24:30.277Z,15.00
2018-06-03T01:26:59.655Z,16.27
2018-06-03T01:29:29.052Z,17.40
2018-06-03T01:31:59.535Z,16.90
2018-06-03T01:34:30.381Z,17.13
2018-06-03T01:37:00.919Z,17.70
2018-06-03T01:39:32.051Z,17.23
2018-06-03T01:42:01.863Z,18.57
2018-06-03T01:44:31.261Z,18.30
2018-06-03T01:47:01.251Z,18.07
2018-06-03T01:49:32.223Z,19.90
2018-06-03T01:52:03.472Z,19.20
2018-06-03T01:54:34.557Z,19.80
2018-06-03T01:57:04.953Z,17.07
2018-06-03T01:59:36.695Z,17.20
2018-06-03T02:02:07.840Z,20.13
2018-06-03T02:04:37.245Z,15.43
2018-06-03T02:07:08.367Z,17.03
2018-06-03T02:09:41.703Z,18.67
2018-06-03T02:12:11.086Z,20.20
2018-06-03T02:14:41.277Z,20.97
2018-06-03T02:17:12.962Z,20.20
2018-06-03T02:19:42.367Z,19.80
2018-06-03T02:22:12.691Z,16.13
2018-06-03T02:24:43.156Z,16.80
2018-06-03T02:27:15.638Z,16.83
2018-06-03T02:29:49.338Z,17.57
2018-06-03T02:32:19.183Z,14.30
2018-06-03T02:34:51.088Z,18.33
2018-06-03T02:37:20.498Z,17.80
2018-06-03T02:39:52.008Z,17.73
2018-06-03T02:42:22.316Z,19.17
2018-06-03T02:44:51.751Z,17.77
2018-06-03T02:47:23.612Z,20.60
2018-06-03T02:49:56.344Z,19.10
2018-06-03T02:52:28.387Z,18.13
2018-06-03T02:54:57.779Z,18.37
2018-06-03T02:57:30.764Z,20.70
2018-06-03T03:00:00.171Z,21.20
2018-06-03T03:02:31.607Z,21.70
2018-06-03T03:05:01.586Z,25.90
2018-06-03T03:07:35.278Z,22.80
2018-06-03T03:10:04.676Z,20.57
2018-06-03T03:12:34.067Z,24.90
2018-06-03T03:15:04.238Z,21.93
2018-06-03T03:17:34.995Z,19.30
2018-06-03T03:20:08.795Z,22.53
2018-06-03T03:22:39.087Z,23.57
2018-06-03T03:25:08.494Z,22.30
2018-06-03T03:27:38.828Z,20.97
2018-06-03T03:30:10.198Z,23.00
2018-06-03T03:32:41.238Z,22.50
2018-06-03T03:35:12.417Z,24.30
2018-06-03T03:37:42.438Z,22.60
2018-06-03T03:40:11.835Z,20.57
2018-06-03T03:42:41.720Z,20.00
2018-06-03T03:45:12.657Z,19.23
2018-06-03T03:47:42.777Z,18.77
2018-06-03T03:50:12.183Z,17.90
2018-06-03T03:52:44.798Z,19.20
2018-06-03T03:55:15.199Z,18.10
2018-06-03T03:57:45.918Z,18.80
2018-06-03T04:00:15.769Z,19.13
2018-06-03T04:02:45.615Z,17.73
2018-06-03T04:05:16.958Z,18.77
2018-06-03T04:07:47.556Z,18.07
2018-06-03T04:10:20.838Z,19.10
2018-06-03T04:12:52.693Z,19.17
2018-06-03T04:15:24.007Z,18.60
2018-06-03T04:17:56.748Z,19.20
2018-06-03T04:20:28.767Z,18.07
2018-06-03T04:22:58.157Z,17.97
2018-06-03T04:25:28.602Z,20.07
2018-06-03T04:27:58.519Z,19.37
2018-06-03T04:30:27.908Z,18.40
2018-06-03T04:32:57.292Z,17.97
2018-06-03T04:35:27.011Z,17.80
2018-06-03T04:37:56.381Z,17.53
2018-06-03T04:40:25.786Z,18.17
2018-06-03T04:42:55.178Z,17.73
2018-06-03T04:45:24.575Z,18.17
2018-06-03T04:47:53.960Z,18.70
2018-06-03T04:50:26.838Z,19.17
2018-06-03T04:52:56.224Z,21.87
2018-06-03T04:55:26.108Z,21.00
2018-06-03T04:57:56.902Z,20.30
2018-06-03T05:00:26.320Z,19.40
2018-06-03T05:02:56.601Z,20.47
2018-06-03T05:05:27.584Z,19.97
2018-06-03T05:07:58.395Z,20.50
2018-06-03T05:10:27.801Z,19.70
2018-06-03T05:12:58.054Z,19.50
2018-06-03T05:15:27.467Z,19.20
2018-06-03T05:18:05.814Z,19.10
2018-06-03T05:20:44.365Z,20.10
2018-06-03T05:23:13.757Z,17.50
2018-06-03T05:25:44.923Z,17.93
2018-06-03T05:28:17.571Z,18.17
2018-06-03T05:30:47.134Z,18.77
2018-06-03T05:33:25.650Z,17.73
2018-06-03T05:35:57.368Z,18.80
2018-06-03T05:38:28.643Z,18.70
2018-06-03T05:40:59.102Z,18.87
2018-06-03T05:43:29.733Z,18.93
2018-06-03T05:45:59.128Z,19.83
2018-06-03T05:48:28.528Z,20.30
2018-06-03T05:50:59.170Z,18.90
2018-06-03T05:53:28.546Z,18.83
2018-06-03T05:55:59.950Z,19.40
2018-06-03T05:58:29.804Z,18.47
2018-06-03T06:00:59.218Z,18.33
2018-06-03T06:03:28.608Z,19.30
2018-06-03T06:05:58.496Z,19.63
2018-06-03T06:08:28.990Z,19.10
2018-06-03T06:11:00.200Z,20.43
2018-06-03T06:13:30.833Z,19.47
2018-06-03T06:16:01.774Z,18.40
2018-06-03T06:18:32.379Z,18.20
2018-06-03T06:21:04.441Z,19.27
2018-06-03T06:23:35.819Z,19.33
2018-06-03T06:26:06.068Z,19.70
2018-06-03T06:28:35.938Z,19.90
2018-06-03T06:31:06.382Z,19.93
2018-06-03T06:33:36.651Z,19.80
2018-06-03T06:36:07.024Z,18.43
2018-06-03T06:38:36.431Z,19.10
2018-06-03T06:41:06.575Z,17.03
2018-06-03T06:43:38.264Z,17.93
2018-06-03T06:46:09.507Z,18.80
2018-06-03T06:48:40.978Z,19.87
2018-06-03T06:51:10.863Z,18.40
2018-06-03T06:53:40.241Z,19.17
2018-06-03T06:56:10.161Z,20.20
2018-06-03T06:58:39.563Z,18.37
2018-06-03T07:01:09.543Z,18.97
2018-06-03T07:03:42.862Z,19.63
2018-06-03T07:06:12.742Z,19.00
2018-06-03T07:08:44.522Z,18.90
2018-06-03T07:11:15.456Z,18.80
2018-06-03T07:13:45.290Z,19.40
2018-06-03T07:16:15.757Z,21.87
2018-06-03T07:18:45.927Z,20.00
2018-06-03T07:21:15.320Z,19.70
2018-06-03T07:23:46.818Z,19.77
2018-06-03T07:26:17.178Z,20.90
2018-06-03T07:28:46.689Z,20.70
2018-06-03T07:31:16.577Z,21.87
2018-06-03T07:33:45.950Z,22.40
2018-06-03T07:36:15.386Z,21.33
2018-06-03T07:38:44.762Z,24.80
2018-06-03T07:41:14.274Z,27.67
2018-06-03T07:43:45.608Z,27.03
2018-06-03T07:46:18.566Z,30.20
2018-06-03T07:48:48.385Z,27.23
2018-06-03T07:51:17.827Z,25.87
2018-06-03T07:53:49.264Z,24.37
2018-06-03T07:56:19.664Z,26.90
2018-06-03T07:58:51.138Z,25.37
2018-06-03T08:01:20.540Z,26.70
2018-06-03T08:03:50.395Z,26.40
2018-06-03T08:06:20.974Z,26.17
2018-06-03T08:08:52.852Z,23.30
2018-06-03T08:11:22.937Z,26.30
2018-06-03T08:13:52.456Z,24.27
2018-06-03T08:16:21.891Z,26.03
2018-06-03T08:18:52.664Z,27.10
2018-06-03T08:21:24.242Z,24.80
2018-06-03T08:23:54.155Z,25.97
2018-06-03T08:26:24.064Z,25.00
2018-06-03T08:28:54.430Z,22.90
2018-06-03T08:31:25.015Z,24.33
2018-06-03T08:33:54.512Z,25.33
2018-06-03T08:36:24.621Z,24.47
2018-06-03T08:38:54.418Z,23.03
2018-06-03T08:41:23.827Z,22.43
2018-06-03T08:43:53.257Z,25.27
2018-06-03T08:46:24.041Z,25.20
2018-06-03T08:48:54.256Z,25.33
2018-06-03T08:51:26.678Z,25.63
2018-06-03T08:53:56.487Z,24.40
2018-06-03T08:56:25.873Z,24.30
2018-06-03T08:58:57.194Z,25.67
2018-06-03T09:01:28.282Z,27.60
2018-06-03T09:03:57.677Z,25.97
2018-06-03T09:06:27.487Z,25.90
2018-06-03T09:08:59.416Z,27.33
2018-06-03T09:11:31.638Z,25.20
2018-06-03T09:14:02.665Z,24.97
2018-06-03T09:16:32.922Z,24.70
2018-06-03T09:19:02.776Z,27.00
2018-06-03T09:21:33.873Z,23.40
2018-06-03T09:24:03.678Z,25.37
2018-06-03T09:26:33.657Z,25.50
2018-06-03T09:29:04.096Z,23.60
2018-06-03T09:31:34.318Z,22.87
2018-06-03T09:34:04.945Z,22.30
2018-06-03T09:36:34.373Z,23.77
2018-06-03T09:39:05.094Z,22.03
2018-06-03T09:42:10.128Z,23.07
2018-06-03T09:44:39.484Z,21.57
2018-06-03T09:47:08.861Z,22.40
2018-06-03T09:49:38.618Z,21.00
2018-06-03T09:52:09.602Z,22.40
2018-06-03T09:54:40.815Z,21.30
2018-06-03T09:57:10.548Z,21.00
2018-06-03T09:59:39.182Z,21.67
2018-06-03T10:02:08.682Z,21.03
2018-06-03T10:04:39.518Z,22.03
2018-06-03T10:07:08.895Z,21.60
2018-06-03T10:09:38.473Z,22.53
2018-06-03T10:12:08.038Z,21.57
2018-06-03T10:14:36.628Z,19.97
2018-06-03T10:17:07.038Z,20.10
2018-06-03T10:19:37.410Z,20.80
2018-06-03T10:22:06.874Z,21.43
2018-06-03T10:24:36.260Z,20.63
2018-06-03T10:27:04.925Z,21.40
2018-06-03T10:29:36.277Z,22.83
2018-06-03T10:32:08.045Z,20.57
2018-06-03T10:34:37.783Z,21.93
2018-06-03T10:37:09.456Z,20.90
2018-06-03T10:39:39.959Z,20.50
2018-06-03T10:42:10.764Z,21.17
2018-06-03T10:44:41.756Z,21.70
2018-06-03T10:47:11.349Z,22.63
2018-06-03T10:49:40.636Z,20.77
2018-06-03T10:52:09.931Z,21.40
2018-06-03T10:54:39.236Z,21.70
2018-06-03T10:57:09.170Z,22.07
2018-06-03T10:59:40.410Z,22.37
2018-06-03T11:02:14.515Z,22.27
2018-06-03T11:04:53.850Z,20.93
2018-06-03T11:07:31.058Z,22.57
2018-06-03T11:10:01.734Z,21.53
2018-06-03T11:12:32.123Z,20.67
2018-06-03T11:15:01.629Z,21.77
2018-06-03T11:17:33.383Z,22.20
2018-06-03T11:20:02.706Z,21.40
2018-06-03T11:22:31.560Z,22.30
2018-06-03T11:25:01.880Z,21.17
2018-06-03T11:27:30.531Z,21.17
2018-06-03T11:29:59.668Z,20.33
2018-06-03T11:32:28.338Z,22.70
2018-06-03T11:35:00.017Z,21.40
2018-06-03T11:37:28.656Z,17.70
2018-06-03T11:40:01.459Z,17.30
2018-06-03T11:42:30.100Z,17.90
2018-06-03T11:44:58.736Z,17.27
2018-06-03T11:47:27.329Z,18.07
2018-06-03T11:49:56.589Z,16.70
2018-06-03T11:52:33.317Z,18.43
2018-06-03T11:55:03.723Z,18.57
2018-06-03T11:57:39.194Z,18.77
2018-06-03T12:00:08.495Z,19.03
2018-06-03T12:02:38.223Z,17.00
2018-06-03T12:05:10.763Z,16.80
2018-06-03T12:07:40.801Z,17.10
2018-06-03T12:10:10.181Z,17.77
2018-06-03T12:12:40.098Z,16.83
2018-06-03T12:15:10.164Z,17.40
2018-06-03T12:17:38.907Z,17.80
2018-06-03T12:20:08.529Z,16.40
2018-06-03T12:22:43.787Z,17.20
2018-06-03T12:25:12.382Z,15.43
2018-06-03T12:27:41.651Z,15.70
2018-06-03T12:30:11.982Z,15.37
2018-06-03T12:32:42.269Z,13.90
2018-06-03T12:35:11.484Z,14.97
2018-06-03T12:37:40.121Z,15.03
2018-06-03T12:40:09.134Z,15.73
2018-06-03T12:42:39.787Z,14.50
2018-06-03T12:45:10.225Z,14.67
2018-06-03T12:47:39.755Z,15.73
2018-06-03T12:50:09.278Z,14.83
2018-06-03T12:52:37.911Z,15.13
2018-06-03T12:55:10.052Z,14.87
2018-06-03T12:57:39.756Z,15.50
2018-06-03T13:00:09.958Z,15.60
2018-06-03T13:02:40.179Z,17.20
2018-06-03T13:05:10.116Z,16.00
2018-06-03T13:07:41.146Z,15.73
2018-06-03T13:10:09.793Z,15.90
2018-06-03T13:12:38.465Z,17.17
2018-06-03T13:15:08.053Z,17.53
2018-06-03T13:17:39.266Z,16.50
2018-06-03T13:20:08.209Z,17.07
2018-06-03T13:22:37.526Z,18.03
2018-06-03T13:25:08.658Z,16.43
2018-06-03T13:27:37.962Z,17.30
2018-06-03T13:30:06.676Z,16.90
2018-06-03T13:32:36.456Z,17.07
2018-06-03T13:35:05.114Z,17.00
2018-06-03T13:37:35.618Z,17.37
2018-06-03T13:40:04.766Z,17.33
2018-06-03T13:42:33.387Z,16.23
2018-06-03T13:45:03.372Z,17.70
2018-06-03T13:47:32.865Z,16.63
2018-06-03T13:50:02.930Z,17.67
2018-06-03T13:52:32.718Z,17.50
2018-06-03T13:55:02.301Z,17.50
2018-06-03T13:57:32.133Z,17.10
2018-06-03T14:00:02.560Z,17.60
2018-06-03T14:02:33.972Z,16.40
2018-06-03T14:05:10.302Z,17.07
2018-06-03T14:07:44.970Z,16.90
2018-06-03T14:10:14.761Z,17.10
2018-06-03T14:12:46.688Z,17.90
2018-06-03T14:15:16.522Z,20.73
2018-06-03T14:17:45.190Z,19.50
2018-06-03T14:20:17.035Z,19.60
2018-06-03T14:22:49.893Z,18.40
2018-06-03T14:25:20.627Z,22.33
2018-06-03T14:27:50.287Z,21.77
2018-06-03T14:30:20.513Z,23.70
2018-06-03T14:32:49.196Z,21.43
2018-06-03T14:35:18.471Z,21.47
2018-06-03T14:37:47.876Z,20.30
2018-06-03T14:40:17.155Z,20.67
2018-06-03T14:42:46.856Z,22.80
2018-06-03T14:45:24.170Z,21.20
2018-06-03T14:47:54.689Z,22.13
2018-06-03T14:50:25.499Z,20.93
2018-06-03T14:52:54.869Z,21.87
2018-06-03T14:55:23.473Z,22.73
2018-06-03T14:57:52.693Z,21.87
2018-06-03T15:00:23.001Z,21.10
2018-06-03T15:02:54.423Z,21.30
2018-06-03T15:05:24.293Z,19.80
2018-06-03T15:07:53.310Z,22.67
2018-06-03T15:10:21.984Z,20.30
2018-06-03T15:12:51.893Z,20.73
2018-06-03T15:15:21.960Z,20.50
2018-06-03T15:17:52.454Z,19.37
2018-06-03T15:20:21.565Z,18.80
2018-06-03T15:22:51.316Z,19.03
2018-06-03T15:25:26.279Z,18.50
2018-06-03T15:27:54.922Z,17.50
2018-06-03T15:30:24.373Z,18.97
2018-06-03T15:32:55.322Z,20.03
2018-06-03T15:35:24.569Z,18.93
2018-06-03T15:37:53.635Z,19.13
2018-06-03T15:40:24.340Z,19.30
2018-06-03T15:42:55.309Z,19.10
2018-06-03T15:45:29.301Z,20.63
2018-06-03T15:47:58.775Z,19.00
2018-06-03T15:50:29.162Z,19.90
2018-06-03T15:52:58.621Z,17.30
2018-06-03T15:55:27.784Z,18.17
2018-06-03T15:57:57.246Z,19.90
2018-06-03T16:00:25.893Z,19.40
2018-06-03T16:02:55.007Z,18.23
2018-06-03T16:05:23.640Z,19.50
2018-06-03T16:07:56.258Z,19.40
2018-06-03T16:10:27.168Z,18.60
2018-06-03T16:12:58.285Z,20.10
2018-06-03T16:15:26.931Z,18.13
2018-06-03T16:17:57.379Z,18.53
2018-06-03T16:20:26.443Z,17.93
2018-06-03T16:23:00.911Z,18.23
2018-06-03T16:25:31.748Z,16.77
2018-06-03T16:28:01.999Z,17.23
2018-06-03T16:30:31.249Z,17.40
2018-06-03T16:33:06.087Z,17.80
2018-06-03T16:35:37.343Z,16.53
2018-06-03T16:38:06.486Z,18.27
2018-06-03T16:40:35.593Z,16.63
2018-06-03T16:43:09.170Z,18.13
2018-06-03T16:45:37.830Z,18.87
2018-06-03T16:48:08.759Z,16.87
2018-06-03T16:50:39.334Z,18.03
2018-06-03T16:53:08.790Z,18.63
2018-06-03T16:55:38.611Z,17.70
2018-06-03T16:58:07.851Z,19.40
2018-06-03T17:00:39.843Z,17.90
2018-06-03T17:03:10.311Z,17.53
2018-06-03T17:05:38.944Z,17.17
2018-06-03T17:08:07.562Z,19.63
2018-06-03T17:10:37.158Z,20.60
2018-06-03T17:13:07.785Z,19.50
2018-06-03T17:15:36.443Z,17.90
2018-06-03T17:18:11.491Z,17.40
2018-06-03T17:20:41.417Z,20.57
2018-06-03T17:23:16.266Z,19.60
2018-06-03T17:25:46.954Z,19.13
2018-06-03T17:28:18.464Z,17.40
2018-06-03T17:30:50.232Z,19.43
2018-06-03T17:33:20.649Z,17.93
2018-06-03T17:35:52.247Z,19.00
2018-06-03T17:38:22.968Z,19.43
2018-06-03T17:40:52.086Z,18.77
2018-06-03T17:43:22.492Z,18.80
2018-06-03T17:45:58.592Z,17.77
2018-06-03T17:48:34.951Z,18.73
2018-06-03T17:51:05.633Z,17.53
2018-06-03T17:53:52.244Z,17.30
2018-06-03T17:56:37.385Z,16.63
2018-06-03T17:59:11.088Z,17.53
2018-06-03T18:01:40.556Z,16.33
2018-06-03T18:04:09.844Z,16.23
2018-06-03T18:06:39.878Z,15.83
2018-06-03T18:09:10.075Z,15.60
2018-06-03T18:11:41.039Z,17.40
2018-06-03T18:14:10.712Z,17.40
2018-06-03T18:16:43.265Z,15.27
2018-06-03T18:19:15.255Z,16.07
2018-06-03T18:21:50.408Z,17.10
2018-06-03T18:24:19.422Z,16.10
2018-06-03T18:26:49.169Z,16.00
2018-06-03T18:29:19.754Z,15.23
2018-06-03T18:31:57.700Z,16.30
2018-06-03T18:34:28.085Z,15.07
2018-06-03T18:37:01.128Z,16.87
2018-06-03T18:39:29.735Z,15.27
2018-06-03T18:42:00.668Z,14.30
2018-06-03T18:44:31.675Z,15.10
2018-06-03T18:47:00.306Z,15.30
2018-06-03T18:49:30.415Z,16.40
2018-06-03T18:51:59.431Z,15.37
2018-06-03T18:54:28.466Z,14.90
2018-06-03T18:56:57.521Z,15.10
2018-06-03T18:59:26.649Z,14.40
2018-06-03T19:01:57.115Z,16.13
2018-06-03T19:04:27.875Z,15.30
2018-06-03T19:06:58.083Z,17.07
2018-06-03T19:09:28.127Z,14.93
2018-06-03T19:11:58.144Z,16.27
2018-06-03T19:14:28.963Z,15.70
2018-06-03T19:16:59.765Z,14.60
2018-06-03T19:19:30.304Z,15.13
2018-06-03T19:22:09.115Z,15.67
2018-06-03T19:24:38.822Z,16.63
2018-06-03T19:27:09.901Z,16.50
2018-06-03T19:29:41.910Z,15.00
2018-06-03T19:32:11.622Z,15.40
2018-06-03T19:34:42.975Z,14.83
2018-06-03T19:37:12.404Z,15.30
2018-06-03T19:39:42.065Z,13.33
2018-06-03T19:42:12.168Z,14.70
2018-06-03T19:44:44.624Z,13.53
2018-06-03T19:47:14.640Z,13.23
2018-06-03T19:49:45.375Z,15.27
2018-06-03T19:52:14.704Z,13.57
2018-06-03T19:54:46.120Z,14.53
2018-06-03T19:57:14.762Z,14.63
2018-06-03T19:59:46.302Z,13.97
2018-06-03T20:02:17.336Z,14.13
2018-06-03T20:04:48.143Z,13.63
2018-06-03T20:07:18.563Z,12.50
2018-06-03T20:09:48.265Z,13.37
2018-06-03T20:12:17.929Z,13.23
2018-06-03T20:14:48.631Z,13.43
2018-06-03T20:17:17.958Z,14.00
2018-06-03T20:19:50.675Z,14.20
2018-06-03T20:22:20.386Z,15.90
2018-06-03T20:24:51.630Z,16.67
2018-06-03T20:27:23.213Z,16.37
2018-06-03T20:29:54.608Z,16.47
2018-06-03T20:32:24.715Z,17.33
2018-06-03T20:34:54.691Z,15.80
2018-06-03T20:37:25.362Z,14.40
2018-06-03T20:39:54.534Z,15.30
2018-06-03T20:42:24.619Z,14.60
2018-06-03T20:44:53.989Z,15.27
2018-06-03T20:47:24.923Z,15.10
2018-06-03T20:49:53.987Z,12.97
2018-06-03T20:52:26.648Z,13.50
2018-06-03T20:54:56.384Z,13.50
2018-06-03T20:57:27.040Z,12.33
2018-06-03T20:59:56.616Z,13.83
2018-06-03T21:02:25.304Z,14.67
2018-06-03T21:04:55.851Z,15.27
2018-06-03T21:07:25.746Z,13.93
2018-06-03T21:09:56.966Z,14.20
2018-06-03T21:12:27.633Z,14.53
2018-06-03T21:14:57.506Z,14.47
2018-06-03T21:17:30.424Z,13.90
2018-06-03T21:20:01.375Z,13.00
2018-06-03T21:22:35.560Z,14.33
2018-06-03T21:25:04.151Z,14.57
2018-06-03T21:27:33.055Z,15.20
2018-06-03T21:30:03.053Z,14.90
2018-06-03T21:32:32.799Z,13.70
2018-06-03T21:35:05.286Z,15.30
2018-06-03T21:37:34.512Z,14.20
2018-06-03T21:40:03.227Z,13.77
2018-06-03T21:42:32.834Z,13.20
2018-06-03T21:45:04.374Z,13.37
2018-06-03T21:47:38.034Z,14.63
2018-06-03T21:50:09.205Z,14.13
2018-06-03T21:52:37.846Z,14.47
2018-06-03T21:55:08.374Z,13.80
2018-06-03T21:57:40.975Z,15.93
2018-06-03T22:00:09.706Z,14.20
2018-06-03T22:02:40.878Z,15.87
2018-06-03T22:05:10.631Z,14.97
2018-06-03T22:07:41.098Z,16.67
2018-06-03T22:10:11.335Z,14.43
2018-06-03T22:12:41.491Z,14.93
2018-06-03T22:15:11.410Z,13.90
2018-06-03T22:17:41.111Z,13.13
2018-06-03T22:20:09.773Z,14.50
2018-06-03T22:22:39.315Z,13.40
2018-06-03T22:25:08.114Z,14.03
2018-06-03T22:27:38.622Z,15.37
2018-06-03T22:30:08.455Z,13.70
2018-06-03T22:32:39.362Z,13.90
2018-06-03T22:35:09.914Z,13.00
2018-06-03T22:37:38.579Z,14.40
2018-06-03T22:40:07.234Z,12.77
2018-06-03T22:42:37.492Z,12.33
2018-06-03T22:45:06.154Z,12.60
2018-06-03T22:47:35.171Z,14.30
2018-06-03T22:50:07.000Z,14.70
2018-06-03T22:52:35.570Z,15.93
2018-06-03T22:55:04.945Z,13.10
2018-06-03T22:57:39.149Z,13.10
2018-06-03T23:00:09.627Z,13.90
2018-06-03T23:02:40.927Z,12.97
2018-06-03T23:05:09.539Z,13.50
2018-06-03T23:07:38.187Z,14.47
2018-06-03T23:10:08.803Z,14.07
2018-06-03T23:12:37.451Z,13.10
2018-06-03T23:15:07.471Z,13.33
2018-06-03T23:17:37.938Z,12.50
2018-06-03T23:20:09.771Z,13.57
2018-06-03T23:22:40.930Z,13.53
2018-06-03T23:25:10.305Z,13.90
2018-06-03T23:27:42.311Z,13.50
2018-06-03T23:30:12.892Z,13.87
2018-06-03T23:32:42.998Z,14.10
2018-06-03T23:35:13.379Z,13.40
2018-06-03T23:37:42.004Z,13.40
2018-06-03T23:40:11.303Z,14.33
2018-06-03T23:42:39.900Z,13.87
2018-06-03T23:45:08.969Z,14.53
2018-06-03T23:47:39.304Z,14.33
2018-06-03T23:50:08.801Z,14.83
2018-06-03T23:52:37.855Z,14.40
2018-06-03T23:55:08.781Z,12.93
2018-06-03T23:57:40.660Z,13.93
